sensor_id;sensor_type;location;lat;lon;timestamp;pressure;altitude;pressure_sealevel;temperature
27715;BMP280;16051;53.024;8.630;2022-08-25T00:00:50;101926.28;;;21.93
27715;BMP280;16051;53.024;8.630;2022-08-25T00:04:52;101930.16;;;21.84
27715;BMP280;16051;53.024;8.630;2022-08-25T00:08:55;101921.25;;;21.75
27715;BMP280;16051;53.024;8.630;2022-08-25T00:13:00;101920.06;;;21.65
27715;BMP280;16051;53.024;8.630;2022-08-25T00:17:05;101918.06;;;21.59
27715;BMP280;16051;53.024;8.630;2022-08-25T00:21:08;101920.88;;;21.54
27715;BMP280;16051;53.024;8.630;2022-08-25T00:25:10;101914.00;;;21.49
27715;BMP280;16051;53.024;8.630;2022-08-25T00:29:13;101922.72;;;21.46
27715;BMP280;16051;53.024;8.630;2022-08-25T00:33:17;101923.03;;;21.37
27715;BMP280;16051;53.024;8.630;2022-08-25T00:37:19;101917.41;;;21.31
27715;BMP280;16051;53.024;8.630;2022-08-25T00:41:23;101920.00;;;21.24
27715;BMP280;16051;53.024;8.630;2022-08-25T00:45:26;101920.81;;;21.19
27715;BMP280;16051;53.024;8.630;2022-08-25T00:49:35;101920.81;;;21.13
27715;BMP280;16051;53.024;8.630;2022-08-25T00:53:39;101929.78;;;21.12
27715;BMP280;16051;53.024;8.630;2022-08-25T00:57:46;101923.88;;;21.09
27715;BMP280;16051;53.024;8.630;2022-08-25T01:01:51;101933.09;;;21.04
27715;BMP280;16051;53.024;8.630;2022-08-25T01:05:56;101935.41;;;21.00
27715;BMP280;16051;53.024;8.630;2022-08-25T01:09:59;101924.94;;;20.95
27715;BMP280;16051;53.024;8.630;2022-08-25T01:14:02;101941.28;;;20.91
27715;BMP280;16051;53.024;8.630;2022-08-25T01:18:06;101937.50;;;20.83
27715;BMP280;16051;53.024;8.630;2022-08-25T01:22:10;101939.31;;;20.75
27715;BMP280;16051;53.024;8.630;2022-08-25T01:26:18;101938.56;;;20.69
27715;BMP280;16051;53.024;8.630;2022-08-25T01:30:20;101945.97;;;20.61
27715;BMP280;16051;53.024;8.630;2022-08-25T01:34:38;101942.66;;;20.57
27715;BMP280;16051;53.024;8.630;2022-08-25T01:38:42;101939.59;;;20.49
27715;BMP280;16051;53.024;8.630;2022-08-25T01:43:25;101936.53;;;20.42
27715;BMP280;16051;53.024;8.630;2022-08-25T01:48:03;101936.03;;;20.32
27715;BMP280;16051;53.024;8.630;2022-08-25T01:52:26;101938.81;;;20.27
27715;BMP280;16051;53.024;8.630;2022-08-25T01:56:31;101935.25;;;20.21
27715;BMP280;16051;53.024;8.630;2022-08-25T02:00:33;101930.16;;;20.13
27715;BMP280;16051;53.024;8.630;2022-08-25T02:04:35;101927.59;;;20.10
27715;BMP280;16051;53.024;8.630;2022-08-25T02:08:37;101922.47;;;20.08
27715;BMP280;16051;53.024;8.630;2022-08-25T02:12:41;101938.28;;;20.11
27715;BMP280;16051;53.024;8.630;2022-08-25T02:21:44;101927.06;;;20.11
27715;BMP280;16051;53.024;8.630;2022-08-25T02:25:47;101922.75;;;19.99
27715;BMP280;16051;53.024;8.630;2022-08-25T02:29:56;101921.97;;;19.99
27715;BMP280;16051;53.024;8.630;2022-08-25T02:33:58;101923.00;;;20.07
27715;BMP280;16051;53.024;8.630;2022-08-25T02:38:02;101923.75;;;20.02
27715;BMP280;16051;53.024;8.630;2022-08-25T02:42:05;101930.63;;;20.01
27715;BMP280;16051;53.024;8.630;2022-08-25T02:46:10;101929.63;;;19.98
27715;BMP280;16051;53.024;8.630;2022-08-25T02:50:12;101927.06;;;19.89
27715;BMP280;16051;53.024;8.630;2022-08-25T02:54:15;101919.66;;;19.86
27715;BMP280;16051;53.024;8.630;2022-08-25T02:58:22;101914.56;;;19.79
27715;BMP280;16051;53.024;8.630;2022-08-25T03:02:26;101918.41;;;19.87
27715;BMP280;16051;53.024;8.630;2022-08-25T03:06:29;101921.19;;;19.82
27715;BMP280;16051;53.024;8.630;2022-08-25T03:10:31;101914.03;;;19.75
27715;BMP280;16051;53.024;8.630;2022-08-25T03:14:34;101913.78;;;19.79
27715;BMP280;16051;53.024;8.630;2022-08-25T03:18:39;101906.66;;;19.78
27715;BMP280;16051;53.024;8.630;2022-08-25T03:22:42;101914.03;;;19.70
27715;BMP280;16051;53.024;8.630;2022-08-25T03:26:57;101913.28;;;19.63
27715;BMP280;16051;53.024;8.630;2022-08-25T03:31:00;101910.44;;;19.58
27715;BMP280;16051;53.024;8.630;2022-08-25T03:35:05;101907.88;;;19.49
27715;BMP280;16051;53.024;8.630;2022-08-25T03:39:08;101911.19;;;19.42
27715;BMP280;16051;53.024;8.630;2022-08-25T03:43:10;101905.03;;;19.38
27715;BMP280;16051;53.024;8.630;2022-08-25T03:47:12;101901.41;;;19.32
27715;BMP280;16051;53.024;8.630;2022-08-25T03:51:21;101904.22;;;19.26
27715;BMP280;16051;53.024;8.630;2022-08-25T03:55:25;101907.50;;;19.25
27715;BMP280;16051;53.024;8.630;2022-08-25T03:59:31;101907.25;;;19.23
27715;BMP280;16051;53.024;8.630;2022-08-25T04:03:35;101896.06;;;19.23
27715;BMP280;16051;53.024;8.630;2022-08-25T04:07:39;101901.94;;;19.30
27715;BMP280;16051;53.024;8.630;2022-08-25T04:11:42;101901.66;;;19.23
27715;BMP280;16051;53.024;8.630;2022-08-25T04:15:44;101897.84;;;19.20
27715;BMP280;16051;53.024;8.630;2022-08-25T04:19:46;101895.28;;;19.22
27715;BMP280;16051;53.024;8.630;2022-08-25T04:23:51;101894.22;;;19.14
27715;BMP280;16051;53.024;8.630;2022-08-25T04:28:02;101888.88;;;19.10
27715;BMP280;16051;53.024;8.630;2022-08-25T04:32:05;101880.47;;;19.10
27715;BMP280;16051;53.024;8.630;2022-08-25T04:36:09;101885.09;;;19.13
27715;BMP280;16051;53.024;8.630;2022-08-25T04:40:13;101885.56;;;19.12
27715;BMP280;16051;53.024;8.630;2022-08-25T04:44:16;101882.25;;;19.08
27715;BMP280;16051;53.024;8.630;2022-08-25T04:48:27;101869.78;;;19.09
27715;BMP280;16051;53.024;8.630;2022-08-25T04:52:29;101884.03;;;19.05
27715;BMP280;16051;53.024;8.630;2022-08-25T04:56:33;101883.50;;;19.07
27715;BMP280;16051;53.024;8.630;2022-08-25T05:00:36;101890.41;;;19.06
27715;BMP280;16051;53.024;8.630;2022-08-25T05:04:38;101889.63;;;19.05
27715;BMP280;16051;53.024;8.630;2022-08-25T05:08:40;101896.25;;;19.08
27715;BMP280;16051;53.024;8.630;2022-08-25T05:12:44;101907.25;;;19.17
27715;BMP280;16051;53.024;8.630;2022-08-25T05:16:56;101892.47;;;19.22
27715;BMP280;16051;53.024;8.630;2022-08-25T05:21:03;101879.50;;;19.25
27715;BMP280;16051;53.024;8.630;2022-08-25T05:25:07;101882.09;;;19.34
27715;BMP280;16051;53.024;8.630;2022-08-25T05:29:11;101874.00;;;19.47
27715;BMP280;16051;53.024;8.630;2022-08-25T05:33:13;101878.28;;;19.37
27715;BMP280;16051;53.024;8.630;2022-08-25T05:37:15;101868.63;;;19.43
27715;BMP280;16051;53.024;8.630;2022-08-25T05:41:21;101868.38;;;19.47
27715;BMP280;16051;53.024;8.630;2022-08-25T05:45:27;101868.66;;;19.49
27715;BMP280;16051;53.024;8.630;2022-08-25T05:49:29;101864.59;;;19.55
27715;BMP280;16051;53.024;8.630;2022-08-25T05:53:32;101875.31;;;19.74
27715;BMP280;16051;53.024;8.630;2022-08-25T05:57:35;101868.19;;;19.67
27715;BMP280;16051;53.024;8.630;2022-08-25T06:01:56;101865.41;;;19.78
27715;BMP280;16051;53.024;8.630;2022-08-25T06:06:15;101873.03;;;19.83
27715;BMP280;16051;53.024;8.630;2022-08-25T06:10:18;101870.75;;;19.87
27715;BMP280;16051;53.024;8.630;2022-08-25T06:14:35;101877.63;;;19.92
27715;BMP280;16051;53.024;8.630;2022-08-25T06:18:39;101870.50;;;20.02
27715;BMP280;16051;53.024;8.630;2022-08-25T06:22:41;101876.59;;;20.06
27715;BMP280;16051;53.024;8.630;2022-08-25T06:26:43;101878.16;;;20.18
27715;BMP280;16051;53.024;8.630;2022-08-25T06:31:02;101880.66;;;20.27
27715;BMP280;16051;53.024;8.630;2022-08-25T06:35:11;101874.56;;;20.40
27715;BMP280;16051;53.024;8.630;2022-08-25T06:39:13;101870.47;;;20.46
27715;BMP280;16051;53.024;8.630;2022-08-25T06:43:17;101869.22;;;20.47
27715;BMP280;16051;53.024;8.630;2022-08-25T06:47:37;101864.03;;;20.62
27715;BMP280;16051;53.024;8.630;2022-08-25T06:51:41;101869.16;;;20.64
27715;BMP280;16051;53.024;8.630;2022-08-25T06:55:44;101867.13;;;20.65
27715;BMP280;16051;53.024;8.630;2022-08-25T06:59:46;101861.72;;;20.78
27715;BMP280;16051;53.024;8.630;2022-08-25T07:03:49;101858.88;;;20.89
27715;BMP280;16051;53.024;8.630;2022-08-25T07:07:53;101862.41;;;20.95
27715;BMP280;16051;53.024;8.630;2022-08-25T07:11:55;101860.28;;;21.18
27715;BMP280;16051;53.024;8.630;2022-08-25T07:15:58;101861.81;;;21.19
27715;BMP280;16051;53.024;8.630;2022-08-25T07:20:00;101855.25;;;21.46
27715;BMP280;16051;53.024;8.630;2022-08-25T07:24:07;101860.50;;;21.66
27715;BMP280;16051;53.024;8.630;2022-08-25T07:28:10;101853.69;;;21.86
27715;BMP280;16051;53.024;8.630;2022-08-25T07:32:12;101853.41;;;21.95
27715;BMP280;16051;53.024;8.630;2022-08-25T07:36:14;101862.59;;;22.25
27715;BMP280;16051;53.024;8.630;2022-08-25T07:40:21;101863.91;;;22.48
27715;BMP280;16051;53.024;8.630;2022-08-25T07:44:25;101860.66;;;22.63
27715;BMP280;16051;53.024;8.630;2022-08-25T07:48:27;101858.59;;;22.88
27715;BMP280;16051;53.024;8.630;2022-08-25T07:52:29;101867.53;;;23.11
27715;BMP280;16051;53.024;8.630;2022-08-25T07:56:32;101861.38;;;23.31
27715;BMP280;16051;53.024;8.630;2022-08-25T08:00:36;101854.75;;;23.47
27715;BMP280;16051;53.024;8.630;2022-08-25T08:04:41;101863.28;;;23.60
27715;BMP280;16051;53.024;8.630;2022-08-25T08:08:45;101867.84;;;23.63
27715;BMP280;16051;53.024;8.630;2022-08-25T08:12:53;101856.56;;;23.63
27715;BMP280;16051;53.024;8.630;2022-08-25T08:16:55;101849.47;;;23.57
27715;BMP280;16051;53.024;8.630;2022-08-25T08:21:18;101849.78;;;23.53
27715;BMP280;16051;53.024;8.630;2022-08-25T08:25:20;101849.75;;;23.72
27715;BMP280;16051;53.024;8.630;2022-08-25T08:29:24;101847.28;;;23.81
27715;BMP280;16051;53.024;8.630;2022-08-25T08:33:29;101851.16;;;23.65
27715;BMP280;16051;53.024;8.630;2022-08-25T08:37:32;101840.22;;;23.75
27715;BMP280;16051;53.024;8.630;2022-08-25T08:42:11;101841.91;;;23.96
27715;BMP280;16051;53.024;8.630;2022-08-25T08:46:21;101839.09;;;24.10
27715;BMP280;16051;53.024;8.630;2022-08-25T08:50:33;101844.75;;;24.10
27715;BMP280;16051;53.024;8.630;2022-08-25T08:54:40;101838.63;;;24.24
27715;BMP280;16051;53.024;8.630;2022-08-25T08:58:48;101841.56;;;24.32
27715;BMP280;16051;53.024;8.630;2022-08-25T09:02:58;101840.47;;;24.35
27715;BMP280;16051;53.024;8.630;2022-08-25T09:07:11;101838.75;;;24.45
27715;BMP280;16051;53.024;8.630;2022-08-25T09:11:25;101830.38;;;24.66
27715;BMP280;16051;53.024;8.630;2022-08-25T09:15:42;101828.09;;;24.77
27715;BMP280;16051;53.024;8.630;2022-08-25T09:20:36;101821.34;;;24.80
27715;BMP280;16051;53.024;8.630;2022-08-25T09:24:58;101814.25;;;25.00
27715;BMP280;16051;53.024;8.630;2022-08-25T09:29:06;101818.78;;;25.16
27715;BMP280;16051;53.024;8.630;2022-08-25T09:33:16;101816.47;;;25.28
27715;BMP280;16051;53.024;8.630;2022-08-25T09:37:22;101803.72;;;25.34
27715;BMP280;16051;53.024;8.630;2022-08-25T09:41:42;101802.47;;;25.56
27715;BMP280;16051;53.024;8.630;2022-08-25T09:45:57;101798.78;;;25.69
27715;BMP280;16051;53.024;8.630;2022-08-25T09:50:03;101791.44;;;25.94
27715;BMP280;16051;53.024;8.630;2022-08-25T09:54:18;101785.84;;;26.02
27715;BMP280;16051;53.024;8.630;2022-08-25T09:58:24;101781.50;;;26.21
27715;BMP280;16051;53.024;8.630;2022-08-25T10:02:28;101772.84;;;26.27
27715;BMP280;16051;53.024;8.630;2022-08-25T10:06:42;101773.16;;;26.44
27715;BMP280;16051;53.024;8.630;2022-08-25T10:10:54;101760.47;;;26.45
27715;BMP280;16051;53.024;8.630;2022-08-25T10:14:57;101747.88;;;26.54
27715;BMP280;16051;53.024;8.630;2022-08-25T10:19:04;101751.94;;;26.81
27715;BMP280;16051;53.024;8.630;2022-08-25T10:23:26;101743.72;;;26.98
27715;BMP280;16051;53.024;8.630;2022-08-25T10:27:40;101737.91;;;27.26
27715;BMP280;16051;53.024;8.630;2022-08-25T10:31:51;101730.75;;;27.78
27715;BMP280;16051;53.024;8.630;2022-08-25T10:36:02;101732.75;;;28.23
27715;BMP280;16051;53.024;8.630;2022-08-25T10:40:17;101728.03;;;28.66
27715;BMP280;16051;53.024;8.630;2022-08-25T10:44:33;101720.78;;;29.12
27715;BMP280;16051;53.024;8.630;2022-08-25T10:49:03;101718.41;;;29.34
27715;BMP280;16051;53.024;8.630;2022-08-25T10:53:24;101713.59;;;29.86
27715;BMP280;16051;53.024;8.630;2022-08-25T10:57:35;101706.78;;;30.33
27715;BMP280;16051;53.024;8.630;2022-08-25T11:02:01;101705.78;;;30.55
27715;BMP280;16051;53.024;8.630;2022-08-25T11:06:13;101705.69;;;30.62
27715;BMP280;16051;53.024;8.630;2022-08-25T11:10:24;101694.72;;;30.86
27715;BMP280;16051;53.024;8.630;2022-08-25T11:14:34;101699.03;;;31.04
27715;BMP280;16051;53.024;8.630;2022-08-25T11:18:49;101678.53;;;31.24
27715;BMP280;16051;53.024;8.630;2022-08-25T11:23:03;101670.72;;;30.62
27715;BMP280;16051;53.024;8.630;2022-08-25T11:27:15;101677.91;;;29.85
27715;BMP280;16051;53.024;8.630;2022-08-25T11:31:20;101670.25;;;30.39
27715;BMP280;16051;53.024;8.630;2022-08-25T11:35:31;101670.56;;;30.60
27715;BMP280;16051;53.024;8.630;2022-08-25T11:44:43;101661.75;;;30.65
27715;BMP280;16051;53.024;8.630;2022-08-25T11:49:00;101669.53;;;31.28
27715;BMP280;16051;53.024;8.630;2022-08-25T11:53:26;101664.09;;;31.68
27715;BMP280;16051;53.024;8.630;2022-08-25T11:57:29;101655.06;;;31.91
27715;BMP280;16051;53.024;8.630;2022-08-25T12:02:06;101649.03;;;32.45
27715;BMP280;16051;53.024;8.630;2022-08-25T12:06:29;101638.31;;;32.55
27715;BMP280;16051;53.024;8.630;2022-08-25T12:10:55;101632.94;;;32.59
27715;BMP280;16051;53.024;8.630;2022-08-25T12:15:19;101636.47;;;32.19
27715;BMP280;16051;53.024;8.630;2022-08-25T12:19:29;101624.44;;;31.73
27715;BMP280;16051;53.024;8.630;2022-08-25T12:24:10;101624.56;;;31.00
27715;BMP280;16051;53.024;8.630;2022-08-25T12:28:39;101617.09;;;30.77
27715;BMP280;16051;53.024;8.630;2022-08-25T12:33:00;101627.88;;;30.79
27715;BMP280;16051;53.024;8.630;2022-08-25T12:37:13;101622.25;;;31.44
27715;BMP280;16051;53.024;8.630;2022-08-25T12:41:20;101608.03;;;31.92
27715;BMP280;16051;53.024;8.630;2022-08-25T12:45:41;101610.69;;;31.33
27715;BMP280;16051;53.024;8.630;2022-08-25T12:49:46;101601.50;;;30.42
27715;BMP280;16051;53.024;8.630;2022-08-25T12:53:52;101600.47;;;30.30
27715;BMP280;16051;53.024;8.630;2022-08-25T12:58:07;101602.00;;;29.87
27715;BMP280;16051;53.024;8.630;2022-08-25T13:02:35;101595.00;;;29.63
27715;BMP280;16051;53.024;8.630;2022-08-25T13:06:59;101594.09;;;29.44
27715;BMP280;16051;53.024;8.630;2022-08-25T13:11:24;101579.59;;;30.45
27715;BMP280;16051;53.024;8.630;2022-08-25T13:15:39;101577.84;;;29.88
27715;BMP280;16051;53.024;8.630;2022-08-25T13:19:43;101574.78;;;30.74
27715;BMP280;16051;53.024;8.630;2022-08-25T13:23:49;101563.09;;;31.35
27715;BMP280;16051;53.024;8.630;2022-08-25T13:27:58;101564.03;;;30.92
27715;BMP280;16051;53.024;8.630;2022-08-25T13:32:05;101558.59;;;31.42
27715;BMP280;16051;53.024;8.630;2022-08-25T13:36:16;101547.78;;;31.79
27715;BMP280;16051;53.024;8.630;2022-08-25T13:40:42;101560.56;;;31.78
27715;BMP280;16051;53.024;8.630;2022-08-25T13:44:44;101560.81;;;31.14
27715;BMP280;16051;53.024;8.630;2022-08-25T13:49:03;101545.63;;;31.02
27715;BMP280;16051;53.024;8.630;2022-08-25T13:53:19;101545.63;;;31.02
27715;BMP280;16051;53.024;8.630;2022-08-25T13:57:25;101535.66;;;30.84
27715;BMP280;16051;53.024;8.630;2022-08-25T14:01:47;101536.41;;;30.94
27715;BMP280;16051;53.024;8.630;2022-08-25T14:06:05;101531.72;;;31.35
27715;BMP280;16051;53.024;8.630;2022-08-25T14:10:38;101526.59;;;31.82
27715;BMP280;16051;53.024;8.630;2022-08-25T14:14:41;101524.34;;;31.80
27715;BMP280;16051;53.024;8.630;2022-08-25T14:19:04;101524.03;;;31.86
27715;BMP280;16051;53.024;8.630;2022-08-25T14:23:15;101522.53;;;31.85
27715;BMP280;16051;53.024;8.630;2022-08-25T14:27:19;101521.06;;;31.64
27715;BMP280;16051;53.024;8.630;2022-08-25T14:31:27;101521.03;;;31.84
27715;BMP280;16051;53.024;8.630;2022-08-25T14:35:31;101516.34;;;31.98
27715;BMP280;16051;53.024;8.630;2022-08-25T14:39:34;101505.56;;;31.87
27715;BMP280;16051;53.024;8.630;2022-08-25T14:43:37;101506.41;;;31.99
27715;BMP280;16051;53.024;8.630;2022-08-25T14:47:40;101499.53;;;31.92
27715;BMP280;16051;53.024;8.630;2022-08-25T14:51:46;101487.03;;;31.97
27715;BMP280;16051;53.024;8.630;2022-08-25T14:55:49;101483.63;;;31.80
27715;BMP280;16051;53.024;8.630;2022-08-25T14:59:55;101476.41;;;31.69
27715;BMP280;16051;53.024;8.630;2022-08-25T15:04:03;101477.47;;;31.73
27715;BMP280;16051;53.024;8.630;2022-08-25T15:08:08;101471.16;;;31.65
27715;BMP280;16051;53.024;8.630;2022-08-25T15:12:30;101467.44;;;31.53
27715;BMP280;16051;53.024;8.630;2022-08-25T15:16:39;101464.44;;;31.22
27715;BMP280;16051;53.024;8.630;2022-08-25T15:20:43;101454.50;;;30.95
27715;BMP280;16051;53.024;8.630;2022-08-25T15:25:06;101465.53;;;30.71
27715;BMP280;16051;53.024;8.630;2022-08-25T15:29:20;101452.19;;;30.64
27715;BMP280;16051;53.024;8.630;2022-08-25T15:33:24;101446.75;;;30.49
27715;BMP280;16051;53.024;8.630;2022-08-25T15:37:26;101436.28;;;30.61
27715;BMP280;16051;53.024;8.630;2022-08-25T15:41:29;101433.75;;;30.65
27715;BMP280;16051;53.024;8.630;2022-08-25T15:45:48;101433.75;;;30.65
27715;BMP280;16051;53.024;8.630;2022-08-25T15:50:05;101439.13;;;30.61
27715;BMP280;16051;53.024;8.630;2022-08-25T15:54:13;101428.03;;;30.56
27715;BMP280;16051;53.024;8.630;2022-08-25T15:58:16;101427.09;;;30.53
27715;BMP280;16051;53.024;8.630;2022-08-25T16:02:21;101430.88;;;30.65
27715;BMP280;16051;53.024;8.630;2022-08-25T16:06:26;101431.00;;;30.48
27715;BMP280;16051;53.024;8.630;2022-08-25T16:10:32;101425.22;;;30.29
27715;BMP280;16051;53.024;8.630;2022-08-25T16:14:41;101410.84;;;30.27
27715;BMP280;16051;53.024;8.630;2022-08-25T16:18:45;101416.47;;;30.17
27715;BMP280;16051;53.024;8.630;2022-08-25T16:22:56;101413.34;;;29.87
27715;BMP280;16051;53.024;8.630;2022-08-25T16:27:00;101413.50;;;29.89
27715;BMP280;16051;53.024;8.630;2022-08-25T16:31:15;101412.03;;;29.88
27715;BMP280;16051;53.024;8.630;2022-08-25T16:35:18;101409.75;;;29.86
27715;BMP280;16051;53.024;8.630;2022-08-25T16:39:22;101410.34;;;29.85
27715;BMP280;16051;53.024;8.630;2022-08-25T16:43:24;101407.81;;;29.89
27715;BMP280;16051;53.024;8.630;2022-08-25T16:47:27;101402.38;;;29.83
27715;BMP280;16051;53.024;8.630;2022-08-25T16:51:52;101395.94;;;29.56
27715;BMP280;16051;53.024;8.630;2022-08-25T16:56:01;101403.72;;;29.55
27715;BMP280;16051;53.024;8.630;2022-08-25T17:00:05;101404.25;;;29.44
27715;BMP280;16051;53.024;8.630;2022-08-25T17:04:10;101392.38;;;29.38
27715;BMP280;16051;53.024;8.630;2022-08-25T17:08:12;101396.88;;;29.41
27715;BMP280;16051;53.024;8.630;2022-08-25T17:12:33;101399.91;;;29.26
27715;BMP280;16051;53.024;8.630;2022-08-25T17:16:35;101386.22;;;29.15
27715;BMP280;16051;53.024;8.630;2022-08-25T17:20:37;101389.72;;;29.06
27715;BMP280;16051;53.024;8.630;2022-08-25T17:24:41;101389.16;;;28.90
27715;BMP280;16051;53.024;8.630;2022-08-25T17:29:04;101385.47;;;28.80
27715;BMP280;16051;53.024;8.630;2022-08-25T17:33:07;101386.88;;;28.89
27715;BMP280;16051;53.024;8.630;2022-08-25T17:37:09;101383.38;;;28.80
27715;BMP280;16051;53.024;8.630;2022-08-25T17:41:15;101390.31;;;28.70
27715;BMP280;16051;53.024;8.630;2022-08-25T17:45:29;101384.50;;;28.60
27715;BMP280;16051;53.024;8.630;2022-08-25T17:49:34;101393.38;;;28.64
27715;BMP280;16051;53.024;8.630;2022-08-25T17:53:37;101395.59;;;28.49
27715;BMP280;16051;53.024;8.630;2022-08-25T17:57:40;101395.50;;;28.39
27715;BMP280;16051;53.024;8.630;2022-08-25T18:01:44;101399.72;;;28.30
27715;BMP280;16051;53.024;8.630;2022-08-25T18:05:46;101399.28;;;28.17
27715;BMP280;16051;53.024;8.630;2022-08-25T18:09:49;101395.00;;;28.08
27715;BMP280;16051;53.024;8.630;2022-08-25T18:13:54;101397.75;;;27.91
27715;BMP280;16051;53.024;8.630;2022-08-25T18:17:58;101395.47;;;27.89
27715;BMP280;16051;53.024;8.630;2022-08-25T18:22:01;101407.22;;;27.86
27715;BMP280;16051;53.024;8.630;2022-08-25T18:26:06;101401.50;;;27.61
27715;BMP280;16051;53.024;8.630;2022-08-25T18:30:44;101409.13;;;27.51
27715;BMP280;16051;53.024;8.630;2022-08-25T18:34:48;101416.53;;;27.39
27715;BMP280;16051;53.024;8.630;2022-08-25T18:38:50;101410.16;;;27.31
27715;BMP280;16051;53.024;8.630;2022-08-25T18:43:13;101409.63;;;27.17
27715;BMP280;16051;53.024;8.630;2022-08-25T18:47:16;101416.28;;;27.05
27715;BMP280;16051;53.024;8.630;2022-08-25T18:51:21;101415.91;;;27.01
27715;BMP280;16051;53.024;8.630;2022-08-25T18:55:24;101419.53;;;26.94
27715;BMP280;16051;53.024;8.630;2022-08-25T18:59:27;101421.44;;;26.83
27715;BMP280;16051;53.024;8.630;2022-08-25T19:03:29;101420.28;;;26.79
27715;BMP280;16051;53.024;8.630;2022-08-25T19:07:33;101426.13;;;26.73
27715;BMP280;16051;53.024;8.630;2022-08-25T19:11:35;101420.50;;;26.66
27715;BMP280;16051;53.024;8.630;2022-08-25T19:15:40;101428.25;;;26.58
27715;BMP280;16051;53.024;8.630;2022-08-25T19:19:43;101420.69;;;26.53
27715;BMP280;16051;53.024;8.630;2022-08-25T19:23:48;101430.13;;;26.40
27715;BMP280;16051;53.024;8.630;2022-08-25T19:27:52;101424.09;;;26.36
27715;BMP280;16051;53.024;8.630;2022-08-25T19:31:55;101425.97;;;26.33
27715;BMP280;16051;53.024;8.630;2022-08-25T19:36:06;101429.53;;;26.26
27715;BMP280;16051;53.024;8.630;2022-08-25T19:40:11;101424.25;;;26.23
27715;BMP280;16051;53.024;8.630;2022-08-25T19:44:14;101424.25;;;26.15
27715;BMP280;16051;53.024;8.630;2022-08-25T19:48:17;101424.78;;;26.06
27715;BMP280;16051;53.024;8.630;2022-08-25T19:52:19;101423.25;;;25.98
27715;BMP280;16051;53.024;8.630;2022-08-25T19:56:25;101424.59;;;25.97
27715;BMP280;16051;53.024;8.630;2022-08-25T20:00:32;101423.81;;;25.88
27715;BMP280;16051;53.024;8.630;2022-08-25T20:04:35;101420.97;;;25.81
27715;BMP280;16051;53.024;8.630;2022-08-25T20:08:37;101427.00;;;25.77
27715;BMP280;16051;53.024;8.630;2022-08-25T20:12:41;101431.31;;;25.71
27715;BMP280;16051;53.024;8.630;2022-08-25T20:16:44;101434.50;;;25.67
27715;BMP280;16051;53.024;8.630;2022-08-25T20:20:46;101436.56;;;25.59
27715;BMP280;16051;53.024;8.630;2022-08-25T20:24:50;101437.47;;;25.54
27715;BMP280;16051;53.024;8.630;2022-08-25T20:28:54;101436.66;;;25.46
27715;BMP280;16051;53.024;8.630;2022-08-25T20:32:57;101436.81;;;25.40
27715;BMP280;16051;53.024;8.630;2022-08-25T20:36:59;101441.84;;;25.27
27715;BMP280;16051;53.024;8.630;2022-08-25T20:41:01;101436.56;;;25.23
27715;BMP280;16051;53.024;8.630;2022-08-25T20:45:08;101435.78;;;25.23
27715;BMP280;16051;53.024;8.630;2022-08-25T20:49:11;101429.91;;;25.13
27715;BMP280;16051;53.024;8.630;2022-08-25T20:53:13;101430.09;;;25.15
27715;BMP280;16051;53.024;8.630;2022-08-25T20:57:31;101438.94;;;25.12
27715;BMP280;16051;53.024;8.630;2022-08-25T21:01:36;101436.63;;;25.03
27715;BMP280;16051;53.024;8.630;2022-08-25T21:05:41;101442.72;;;25.14
27715;BMP280;16051;53.024;8.630;2022-08-25T21:09:56;101436.47;;;25.08
27715;BMP280;16051;53.024;8.630;2022-08-25T21:13:58;101426.88;;;25.11
27715;BMP280;16051;53.024;8.630;2022-08-25T21:18:02;101430.38;;;24.96
27715;BMP280;16051;53.024;8.630;2022-08-25T21:22:16;101420.13;;;24.86
27715;BMP280;16051;53.024;8.630;2022-08-25T21:26:23;101425.69;;;24.78
27715;BMP280;16051;53.024;8.630;2022-08-25T21:30:28;101424.84;;;24.83
27715;BMP280;16051;53.024;8.630;2022-08-25T21:34:33;101423.53;;;24.84
27715;BMP280;16051;53.024;8.630;2022-08-25T21:38:35;101423.84;;;24.81
27715;BMP280;16051;53.024;8.630;2022-08-25T21:42:38;101427.97;;;24.80
27715;BMP280;16051;53.024;8.630;2022-08-25T21:46:40;101422.50;;;24.74
27715;BMP280;16051;53.024;8.630;2022-08-25T21:50:43;101423.59;;;24.71
27715;BMP280;16051;53.024;8.630;2022-08-25T21:54:46;101419.00;;;24.61
27715;BMP280;16051;53.024;8.630;2022-08-25T21:58:48;101416.94;;;24.61
27715;BMP280;16051;53.024;8.630;2022-08-25T22:02:50;101417.28;;;24.58
27715;BMP280;16051;53.024;8.630;2022-08-25T22:06:55;101420.34;;;24.67
27715;BMP280;16051;53.024;8.630;2022-08-25T22:10:57;101415.91;;;24.51
27715;BMP280;16051;53.024;8.630;2022-08-25T22:15:00;101417.22;;;24.50
27715;BMP280;16051;53.024;8.630;2022-08-25T22:19:03;101412.44;;;24.37
27715;BMP280;16051;53.024;8.630;2022-08-25T22:23:07;101408.44;;;24.33
27715;BMP280;16051;53.024;8.630;2022-08-25T22:27:26;101413.13;;;24.30
27715;BMP280;16051;53.024;8.630;2022-08-25T22:31:29;101404.78;;;24.25
27715;BMP280;16051;53.024;8.630;2022-08-25T22:35:32;101405.59;;;24.12
27715;BMP280;16051;53.024;8.630;2022-08-25T22:39:36;101395.72;;;24.06
27715;BMP280;16051;53.024;8.630;2022-08-25T22:43:39;101398.50;;;23.98
27715;BMP280;16051;53.024;8.630;2022-08-25T22:48:07;101385.81;;;23.91
27715;BMP280;16051;53.024;8.630;2022-08-25T22:52:09;101395.59;;;23.90
27715;BMP280;16051;53.024;8.630;2022-08-25T22:56:17;101394.00;;;23.82
27715;BMP280;16051;53.024;8.630;2022-08-25T23:00:19;101398.25;;;23.75
27715;BMP280;16051;53.024;8.630;2022-08-25T23:04:36;101395.56;;;23.70
27715;BMP280;16051;53.024;8.630;2022-08-25T23:08:51;101385.03;;;23.70
27715;BMP280;16051;53.024;8.630;2022-08-25T23:12:55;101385.72;;;23.63
27715;BMP280;16051;53.024;8.630;2022-08-25T23:16:58;101381.50;;;23.57
27715;BMP280;16051;53.024;8.630;2022-08-25T23:21:00;101375.44;;;23.52
27715;BMP280;16051;53.024;8.630;2022-08-25T23:25:20;101374.50;;;23.50
27715;BMP280;16051;53.024;8.630;2022-08-25T23:29:24;101365.94;;;23.42
27715;BMP280;16051;53.024;8.630;2022-08-25T23:33:27;101369.59;;;23.37
27715;BMP280;16051;53.024;8.630;2022-08-25T23:37:29;101369.75;;;23.32